WetterOnline ( http://www.wetteronline.de )

Wetter aktuell Bremen

Aktuelles Wetter: Bremerhaven (11m)

6-stündlich | Neueste Meldungen
Ortszeit Temperatur Wetter
Fr, 20.07. 20:00 22.4° C fast wolkenlos
Fr, 20.07. 14:00 23.7° C wolkenlos
Fr, 20.07. 8:00 15.4° C bewölkt
Fr, 20.07. 2:00 16.5° C bewölkt
Do, 19.07. 20:00 20.2° C wolkenlos
Do, 19.07. 14:00 21.0° C leicht bewölkt
Do, 19.07. 8:00 17.9° C wolkenlos
Do, 19.07. 2:00 16.8° C wolkenlos
Ortszeit Temperatur Wetter
Fr, 20.07. 23:30 20.0° C bewölkt
Fr, 20.07. 23:20 20.0° C bewölkt
Fr, 20.07. 23:10 20.0° C bewölkt
Fr, 20.07. 23:00 20.2° C bewölkt
Fr, 20.07. 22:50 20.2° C bewölkt
Fr, 20.07. 22:40 20.2° C wolkig
Fr, 20.07. 22:30 20.4° C wolkig
Fr, 20.07. 22:00 20.6° C wolkenlos
Fr, 20.07. 21:30 21.1° C wolkenlos
Fr, 20.07. 21:00 21.6° C wolkenlos
Fr, 20.07. 20:30 22.2° C wolkenlos
Ortszeit Relative Feuchte Sichtweite
Fr, 20.07. 20:00 57% 10 km
Fr, 20.07. 14:00 39% 10 km
Fr, 20.07. 8:00 80% 10 km
Fr, 20.07. 2:00 75% 10 km
Do, 19.07. 20:00 60% 10 km
Do, 19.07. 14:00 54% 10 km
Do, 19.07. 8:00 76% 9 km
Do, 19.07. 2:00 86% 10 km
Ortszeit Relative Feuchte Sichtweite
Fr, 20.07. 23:30 67% 10 km
Fr, 20.07. 23:20 67% -
Fr, 20.07. 23:10 67% -
Fr, 20.07. 23:00 69% 10 km
Fr, 20.07. 22:50 69% -
Fr, 20.07. 22:40 69% -
Fr, 20.07. 22:30 71% 9 km
Fr, 20.07. 22:00 71% 10 km
Fr, 20.07. 21:30 69% 10 km
Fr, 20.07. 21:00 64% 10 km
Fr, 20.07. 20:30 61% 10 km
Ortszeit Niederschlagsmenge Niederschlagsart
Fr, 20.07. 20:00 0.0 l/m2 in 12 Std. -
Fr, 20.07. 14:00 0.0 l/m2 in 6 Std. -
Fr, 20.07. 8:00 0.0 l/m2 in 12 Std. -
Fr, 20.07. 2:00 0.0 l/m2 in 6 Std. -
Do, 19.07. 20:00 0.0 l/m2 in 12 Std. -
Do, 19.07. 14:00 0.0 l/m2 in 6 Std. -
Do, 19.07. 8:00 0.0 l/m2 in 12 Std. -
Do, 19.07. 2:00 0.0 l/m2 in 6 Std. -
Ortszeit Niederschlagsmenge Niederschlagsart
Fr, 20.07. 23:30 0.0 l/m2 in 1 Std. -
Fr, 20.07. 23:20 keine Meldung -
Fr, 20.07. 23:10 keine Meldung -
Fr, 20.07. 23:00 0.0 l/m2 in 1 Std. -
Fr, 20.07. 22:50 keine Meldung -
Fr, 20.07. 22:40 keine Meldung -
Fr, 20.07. 22:30 0.0 l/m2 in 1 Std. -
Fr, 20.07. 22:00 0.0 l/m2 in 1 Std. -
Fr, 20.07. 21:30 0.0 l/m2 in 1 Std. -
Fr, 20.07. 21:00 0.0 l/m2 in 1 Std. -
Fr, 20.07. 20:30 0.0 l/m2 in 1 Std. -
Ortszeit Stärke Spitze Richtung
km/h Bft. km/h Grad Sektor
Fr, 20.07. 20:00 22 4 32 40° NO
Fr, 20.07. 14:00 11 2 31 80° O
Fr, 20.07. 8:00 13 3 22 80° O
Fr, 20.07. 2:00 11 2 28 60° NO
Do, 19.07. 20:00 17 3 33 10° N
Do, 19.07. 14:00 20 4 22 320° NW
Do, 19.07. 8:00 0 0 11 - -
Do, 19.07. 2:00 6 1 26 350° N
Ortszeit Stärke Spitze Richtung
km/h Bft. km/h Grad Sektor
Fr, 20.07. 23:30 20 4 31 50° NO
Fr, 20.07. 23:20 20 4 - 50° NO
Fr, 20.07. 23:10 20 4 - 50° NO
Fr, 20.07. 23:00 18 3 25 50° NO
Fr, 20.07. 22:50 18 3 - 50° NO
Fr, 20.07. 22:40 18 3 - 40° NO
Fr, 20.07. 22:30 18 3 25 40° NO
Fr, 20.07. 22:00 17 3 26 40° NO
Fr, 20.07. 21:30 17 3 26 40° NO
Fr, 20.07. 21:00 22 4 29 40° NO
Fr, 20.07. 20:30 18 3 29 40° NO
Ortszeit Untergrenze Bedeckung Gattung
total tief tief mittel hoch
Fr, 20.07. 20:00 5700 m 1/8 1/8 - - -
Fr, 20.07. 14:00 - 0/8 0/8 - - -
Fr, 20.07. 8:00 2400 m 7/8 7/8 - - -
Fr, 20.07. 2:00 2100 m 7/8 7/8 - - -
Do, 19.07. 20:00 - 0/8 0/8 - - -
Do, 19.07. 14:00 1800 m 2/8 4/8 - - -
Do, 19.07. 8:00 - 0/8 0/8 - - -
Do, 19.07. 2:00 - 0/8 0/8 - - -
Ortszeit Bedeckungsgrad in Achtel und Wolkenuntergrenze
Fr, 20.07. 23:30 7(2400m)
Fr, 20.07. 23:20 7(2400m)
Fr, 20.07. 23:10 7(2400m)
Fr, 20.07. 23:00 7(2100m)
Fr, 20.07. 22:50 7(2100m)
Fr, 20.07. 22:40 6(2100m)
Fr, 20.07. 22:30 4(2100m) 5(12000m)
Fr, 20.07. 22:00 1(12000m)
Fr, 20.07. 21:30 keine Wolken
Fr, 20.07. 21:00 keine Wolken
Fr, 20.07. 20:30 keine Wolken
Ortszeit Luftdruck NN (hPa) Tendenz (hPa in 3 Std.)
Fr, 20.07. 20:00 1013 - 1,0
Fr, 20.07. 14:00 1015 - 1,2
Fr, 20.07. 8:00 1017 - 0,6
Fr, 20.07. 2:00 1018 0,0
Do, 19.07. 20:00 1018 - 0,7
Do, 19.07. 14:00 1020 - 0,2
Do, 19.07. 8:00 1020 + 0,5
Do, 19.07. 2:00 1020 + 0,1
Ortszeit Luftdruck NN (hPa) Tendenz (hPa in 3 Std.)
Fr, 20.07. 23:30 1013 + 0,4
Fr, 20.07. 23:20 1013 keine Meldung
Fr, 20.07. 23:10 1013 keine Meldung
Fr, 20.07. 23:00 1013 + 0,2
Fr, 20.07. 22:50 1013 keine Meldung
Fr, 20.07. 22:40 1013 keine Meldung
Fr, 20.07. 22:30 1013 + 0,3
Fr, 20.07. 22:00 1013 + 0,1
Fr, 20.07. 21:30 1013 - 0,5
Fr, 20.07. 21:00 1013 - 0,9
Fr, 20.07. 20:30 1013 - 0,9
Ortszeit Schneehöhe (cm)
Fr, 20.07. 20:00 -
Fr, 20.07. 14:00 -
Fr, 20.07. 8:00 -
Fr, 20.07. 2:00 -
Do, 19.07. 20:00 -
Do, 19.07. 14:00 -
Do, 19.07. 8:00 -
Do, 19.07. 2:00 -
Ortszeit Schneehöhe (cm)
Fr, 20.07. 23:30 -
Fr, 20.07. 23:20 -
Fr, 20.07. 23:10 -
Fr, 20.07. 23:00 -
Fr, 20.07. 22:50 -
Fr, 20.07. 22:40 -
Fr, 20.07. 22:30 -
Fr, 20.07. 22:00 -
Fr, 20.07. 21:30 -
Fr, 20.07. 21:00 -
Fr, 20.07. 20:30 -
Link zu dieser Seite / Seite empfehlen

Das Wetter in ...